sensor_id;sensor_type;location;lat;lon;timestamp;P1;durP1;ratioP1;P2;durP2;ratioP2
54865;SDS011;40754;52.094;4.328;2023-03-01T00:01:52;14.80;;;9.85;;
54865;SDS011;40754;52.094;4.328;2023-03-01T00:04:18;14.15;;;10.00;;
54865;SDS011;40754;52.094;4.328;2023-03-01T00:06:43;14.48;;;9.35;;
54865;SDS011;40754;52.094;4.328;2023-03-01T00:09:13;18.02;;;10.48;;
54865;SDS011;40754;52.094;4.328;2023-03-01T00:11:39;15.27;;;10.30;;
54865;SDS011;40754;52.094;4.328;2023-03-01T00:14:04;14.10;;;9.95;;
54865;SDS011;40754;52.094;4.328;2023-03-01T00:16:37;16.77;;;10.82;;
54865;SDS011;40754;52.094;4.328;2023-03-01T00:19:12;15.80;;;10.18;;
54865;SDS011;40754;52.094;4.328;2023-03-01T00:21:38;17.83;;;10.60;;
54865;SDS011;40754;52.094;4.328;2023-03-01T00:24:05;16.88;;;10.65;;
54865;SDS011;40754;52.094;4.328;2023-03-01T00:26:30;19.58;;;10.48;;
54865;SDS011;40754;52.094;4.328;2023-03-01T00:28:56;16.92;;;11.07;;
54865;SDS011;40754;52.094;4.328;2023-03-01T00:31:23;16.17;;;10.70;;
54865;SDS011;40754;52.094;4.328;2023-03-01T00:33:54;19.70;;;11.93;;
54865;SDS011;40754;52.094;4.328;2023-03-01T00:36:22;17.77;;;10.98;;
54865;SDS011;40754;52.094;4.328;2023-03-01T00:38:49;16.40;;;11.13;;
54865;SDS011;40754;52.094;4.328;2023-03-01T00:41:18;16.50;;;11.38;;
54865;SDS011;40754;52.094;4.328;2023-03-01T00:43:51;18.33;;;11.98;;
54865;SDS011;40754;52.094;4.328;2023-03-01T00:46:18;16.85;;;12.57;;
54865;SDS011;40754;52.094;4.328;2023-03-01T00:48:49;19.30;;;12.00;;
54865;SDS011;40754;52.094;4.328;2023-03-01T00:51:16;19.08;;;12.38;;
54865;SDS011;40754;52.094;4.328;2023-03-01T00:53:45;23.67;;;12.55;;
54865;SDS011;40754;52.094;4.328;2023-03-01T00:56:12;21.30;;;12.00;;
54865;SDS011;40754;52.094;4.328;2023-03-01T00:58:38;23.17;;;13.00;;
54865;SDS011;40754;52.094;4.328;2023-03-01T01:01:13;19.35;;;12.35;;
54865;SDS011;40754;52.094;4.328;2023-03-01T01:03:56;19.95;;;12.10;;
54865;SDS011;40754;52.094;4.328;2023-03-01T01:06:24;20.38;;;13.00;;
54865;SDS011;40754;52.094;4.328;2023-03-01T01:08:54;21.45;;;13.77;;
54865;SDS011;40754;52.094;4.328;2023-03-01T01:11:22;22.42;;;13.63;;
54865;SDS011;40754;52.094;4.328;2023-03-01T01:13:48;24.63;;;13.95;;
54865;SDS011;40754;52.094;4.328;2023-03-01T01:16:14;23.67;;;14.30;;
54865;SDS011;40754;52.094;4.328;2023-03-01T01:18:45;21.60;;;13.77;;
54865;SDS011;40754;52.094;4.328;2023-03-01T01:21:11;23.65;;;13.95;;
54865;SDS011;40754;52.094;4.328;2023-03-01T01:23:41;25.15;;;14.75;;
54865;SDS011;40754;52.094;4.328;2023-03-01T01:26:08;21.65;;;14.80;;
54865;SDS011;40754;52.094;4.328;2023-03-01T01:28:38;23.70;;;14.60;;
54865;SDS011;40754;52.094;4.328;2023-03-01T01:31:08;21.85;;;14.32;;
54865;SDS011;40754;52.094;4.328;2023-03-01T01:33:34;21.92;;;14.63;;
54865;SDS011;40754;52.094;4.328;2023-03-01T01:35:59;25.65;;;15.85;;
54865;SDS011;40754;52.094;4.328;2023-03-01T01:38:25;21.98;;;14.63;;
54865;SDS011;40754;52.094;4.328;2023-03-01T01:40:51;23.00;;;14.85;;
54865;SDS011;40754;52.094;4.328;2023-03-01T01:43:18;23.88;;;15.52;;
54865;SDS011;40754;52.094;4.328;2023-03-01T01:45:44;24.27;;;16.08;;
54865;SDS011;40754;52.094;4.328;2023-03-01T01:48:13;27.60;;;16.20;;
54865;SDS011;40754;52.094;4.328;2023-03-01T01:50:41;25.73;;;15.40;;
54865;SDS011;40754;52.094;4.328;2023-03-01T01:53:10;25.02;;;15.88;;
54865;SDS011;40754;52.094;4.328;2023-03-01T01:55:40;26.33;;;16.77;;
54865;SDS011;40754;52.094;4.328;2023-03-01T01:58:08;26.90;;;15.45;;
54865;SDS011;40754;52.094;4.328;2023-03-01T02:00:43;28.38;;;16.00;;
54865;SDS011;40754;52.094;4.328;2023-03-01T02:03:13;30.48;;;15.88;;
54865;SDS011;40754;52.094;4.328;2023-03-01T02:08:14;24.35;;;16.33;;
54865;SDS011;40754;52.094;4.328;2023-03-01T02:10:41;27.10;;;17.00;;
54865;SDS011;40754;52.094;4.328;2023-03-01T02:13:07;26.80;;;15.40;;
54865;SDS011;40754;52.094;4.328;2023-03-01T02:15:34;28.77;;;15.90;;
54865;SDS011;40754;52.094;4.328;2023-03-01T02:18:00;25.02;;;15.82;;
54865;SDS011;40754;52.094;4.328;2023-03-01T02:20:29;26.48;;;16.27;;
54865;SDS011;40754;52.094;4.328;2023-03-01T02:23:00;24.67;;;15.65;;
54865;SDS011;40754;52.094;4.328;2023-03-01T02:33:29;26.00;;;15.45;;
54865;SDS011;40754;52.094;4.328;2023-03-01T02:35:58;27.23;;;16.05;;
54865;SDS011;40754;52.094;4.328;2023-03-01T02:38:25;25.95;;;16.00;;
54865;SDS011;40754;52.094;4.328;2023-03-01T02:40:52;24.25;;;15.57;;
54865;SDS011;40754;52.094;4.328;2023-03-01T02:43:19;28.65;;;17.45;;
54865;SDS011;40754;52.094;4.328;2023-03-01T02:45:50;28.27;;;16.50;;
54865;SDS011;40754;52.094;4.328;2023-03-01T02:48:20;26.25;;;15.93;;
54865;SDS011;40754;52.094;4.328;2023-03-01T02:53:41;27.98;;;16.73;;
54865;SDS011;40754;52.094;4.328;2023-03-01T02:56:17;28.92;;;17.58;;
54865;SDS011;40754;52.094;4.328;2023-03-01T02:58:43;29.45;;;17.30;;
54865;SDS011;40754;52.094;4.328;2023-03-01T03:01:16;32.72;;;18.80;;
54865;SDS011;40754;52.094;4.328;2023-03-01T03:03:43;37.15;;;20.58;;
54865;SDS011;40754;52.094;4.328;2023-03-01T03:06:08;37.08;;;20.10;;
54865;SDS011;40754;52.094;4.328;2023-03-01T03:08:34;28.73;;;17.60;;
54865;SDS011;40754;52.094;4.328;2023-03-01T03:11:00;31.30;;;18.05;;
54865;SDS011;40754;52.094;4.328;2023-03-01T03:13:26;29.27;;;18.00;;
54865;SDS011;40754;52.094;4.328;2023-03-01T03:15:53;28.20;;;18.10;;
54865;SDS011;40754;52.094;4.328;2023-03-01T03:18:21;35.00;;;20.05;;
54865;SDS011;40754;52.094;4.328;2023-03-01T03:20:56;34.60;;;20.30;;
54865;SDS011;40754;52.094;4.328;2023-03-01T03:23:22;33.08;;;19.27;;
54865;SDS011;40754;52.094;4.328;2023-03-01T03:25:49;30.98;;;18.88;;
54865;SDS011;40754;52.094;4.328;2023-03-01T03:28:14;28.00;;;18.90;;
54865;SDS011;40754;52.094;4.328;2023-03-01T03:30:41;32.15;;;18.65;;
54865;SDS011;40754;52.094;4.328;2023-03-01T03:33:07;31.35;;;18.60;;
54865;SDS011;40754;52.094;4.328;2023-03-01T03:35:38;32.00;;;18.73;;
54865;SDS011;40754;52.094;4.328;2023-03-01T03:38:09;29.40;;;17.02;;
54865;SDS011;40754;52.094;4.328;2023-03-01T03:40:41;34.80;;;19.23;;
54865;SDS011;40754;52.094;4.328;2023-03-01T03:43:14;35.42;;;19.73;;
54865;SDS011;40754;52.094;4.328;2023-03-01T03:45:43;30.92;;;18.25;;
54865;SDS011;40754;52.094;4.328;2023-03-01T03:48:09;29.48;;;17.98;;
54865;SDS011;40754;52.094;4.328;2023-03-01T03:50:36;29.20;;;19.00;;
54865;SDS011;40754;52.094;4.328;2023-03-01T03:53:04;30.50;;;18.52;;
54865;SDS011;40754;52.094;4.328;2023-03-01T03:55:30;32.33;;;19.73;;
54865;SDS011;40754;52.094;4.328;2023-03-01T03:57:59;34.55;;;21.35;;
54865;SDS011;40754;52.094;4.328;2023-03-01T04:00:32;33.65;;;19.80;;
54865;SDS011;40754;52.094;4.328;2023-03-01T04:02:59;34.92;;;19.90;;
54865;SDS011;40754;52.094;4.328;2023-03-01T04:05:25;39.30;;;22.70;;
54865;SDS011;40754;52.094;4.328;2023-03-01T04:07:51;40.28;;;22.30;;
54865;SDS011;40754;52.094;4.328;2023-03-01T04:10:26;43.28;;;23.38;;
54865;SDS011;40754;52.094;4.328;2023-03-01T04:13:00;45.90;;;22.50;;
54865;SDS011;40754;52.094;4.328;2023-03-01T04:15:26;36.60;;;22.67;;
54865;SDS011;40754;52.094;4.328;2023-03-01T04:17:52;42.63;;;23.42;;
54865;SDS011;40754;52.094;4.328;2023-03-01T04:20:21;39.40;;;22.58;;
54865;SDS011;40754;52.094;4.328;2023-03-01T04:22:52;43.63;;;24.20;;
54865;SDS011;40754;52.094;4.328;2023-03-01T04:25:23;41.50;;;24.92;;
54865;SDS011;40754;52.094;4.328;2023-03-01T04:27:49;39.08;;;23.17;;
54865;SDS011;40754;52.094;4.328;2023-03-01T04:30:14;48.53;;;25.20;;
54865;SDS011;40754;52.094;4.328;2023-03-01T04:32:42;42.17;;;25.33;;
54865;SDS011;40754;52.094;4.328;2023-03-01T04:35:08;51.10;;;25.58;;
54865;SDS011;40754;52.094;4.328;2023-03-01T04:37:39;45.63;;;26.15;;
54865;SDS011;40754;52.094;4.328;2023-03-01T04:40:09;46.47;;;25.85;;
54865;SDS011;40754;52.094;4.328;2023-03-01T04:42:38;46.70;;;24.58;;
54865;SDS011;40754;52.094;4.328;2023-03-01T04:45:07;44.78;;;23.73;;
54865;SDS011;40754;52.094;4.328;2023-03-01T04:47:41;34.85;;;22.30;;
54865;SDS011;40754;52.094;4.328;2023-03-01T04:50:12;46.75;;;24.33;;
54865;SDS011;40754;52.094;4.328;2023-03-01T04:52:42;44.03;;;24.90;;
54865;SDS011;40754;52.094;4.328;2023-03-01T04:55:08;44.50;;;25.65;;
54865;SDS011;40754;52.094;4.328;2023-03-01T04:57:35;45.58;;;25.05;;
54865;SDS011;40754;52.094;4.328;2023-03-01T05:00:00;42.00;;;24.08;;
54865;SDS011;40754;52.094;4.328;2023-03-01T05:02:26;45.22;;;24.58;;
54865;SDS011;40754;52.094;4.328;2023-03-01T05:04:54;40.15;;;23.17;;
54865;SDS011;40754;52.094;4.328;2023-03-01T05:07:23;40.13;;;23.95;;
54865;SDS011;40754;52.094;4.328;2023-03-01T05:09:49;46.60;;;25.55;;
54865;SDS011;40754;52.094;4.328;2023-03-01T05:12:15;46.50;;;26.17;;
54865;SDS011;40754;52.094;4.328;2023-03-01T05:14:41;45.85;;;23.13;;
54865;SDS011;40754;52.094;4.328;2023-03-01T05:17:06;43.42;;;24.40;;
54865;SDS011;40754;52.094;4.328;2023-03-01T05:19:32;43.30;;;24.92;;
54865;SDS011;40754;52.094;4.328;2023-03-01T05:22:01;42.58;;;25.35;;
54865;SDS011;40754;52.094;4.328;2023-03-01T05:24:40;42.42;;;25.42;;
54865;SDS011;40754;52.094;4.328;2023-03-01T05:27:14;51.20;;;27.23;;
54865;SDS011;40754;52.094;4.328;2023-03-01T05:29:47;49.53;;;26.70;;
54865;SDS011;40754;52.094;4.328;2023-03-01T05:32:17;48.67;;;26.00;;
54865;SDS011;40754;52.094;4.328;2023-03-01T05:34:43;51.67;;;27.30;;
54865;SDS011;40754;52.094;4.328;2023-03-01T05:37:11;51.05;;;26.90;;
54865;SDS011;40754;52.094;4.328;2023-03-01T05:39:37;45.75;;;25.67;;
54865;SDS011;40754;52.094;4.328;2023-03-01T05:42:03;48.55;;;27.05;;
54865;SDS011;40754;52.094;4.328;2023-03-01T05:44:29;51.00;;;27.50;;
54865;SDS011;40754;52.094;4.328;2023-03-01T05:46:55;46.88;;;26.05;;
54865;SDS011;40754;52.094;4.328;2023-03-01T05:49:21;48.28;;;28.08;;
54865;SDS011;40754;52.094;4.328;2023-03-01T05:51:51;51.85;;;28.25;;
54865;SDS011;40754;52.094;4.328;2023-03-01T05:54:18;50.33;;;26.30;;
54865;SDS011;40754;52.094;4.328;2023-03-01T05:56:47;55.10;;;28.92;;
54865;SDS011;40754;52.094;4.328;2023-03-01T05:59:16;56.05;;;27.05;;
54865;SDS011;40754;52.094;4.328;2023-03-01T06:01:42;50.53;;;29.10;;
54865;SDS011;40754;52.094;4.328;2023-03-01T06:04:08;57.00;;;30.17;;
54865;SDS011;40754;52.094;4.328;2023-03-01T06:06:44;52.47;;;29.50;;
54865;SDS011;40754;52.094;4.328;2023-03-01T06:09:10;53.78;;;28.05;;
54865;SDS011;40754;52.094;4.328;2023-03-01T06:11:39;51.53;;;28.73;;
54865;SDS011;40754;52.094;4.328;2023-03-01T06:14:05;52.78;;;28.42;;
54865;SDS011;40754;52.094;4.328;2023-03-01T06:16:35;47.60;;;27.00;;
54865;SDS011;40754;52.094;4.328;2023-03-01T06:19:00;52.35;;;28.88;;
54865;SDS011;40754;52.094;4.328;2023-03-01T06:21:29;48.22;;;28.58;;
54865;SDS011;40754;52.094;4.328;2023-03-01T06:23:55;48.22;;;27.25;;
54865;SDS011;40754;52.094;4.328;2023-03-01T06:26:20;47.03;;;26.15;;
54865;SDS011;40754;52.094;4.328;2023-03-01T06:28:51;49.38;;;26.98;;
54865;SDS011;40754;52.094;4.328;2023-03-01T06:31:20;44.13;;;25.92;;
54865;SDS011;40754;52.094;4.328;2023-03-01T06:33:46;45.70;;;25.55;;
54865;SDS011;40754;52.094;4.328;2023-03-01T06:36:11;44.22;;;25.15;;
54865;SDS011;40754;52.094;4.328;2023-03-01T06:38:39;48.53;;;25.98;;
54865;SDS011;40754;52.094;4.328;2023-03-01T06:41:05;49.60;;;26.52;;
54865;SDS011;40754;52.094;4.328;2023-03-01T06:43:34;48.75;;;26.23;;
54865;SDS011;40754;52.094;4.328;2023-03-01T06:45:59;49.22;;;25.40;;
54865;SDS011;40754;52.094;4.328;2023-03-01T06:48:26;45.70;;;25.35;;
54865;SDS011;40754;52.094;4.328;2023-03-01T06:50:51;47.83;;;26.17;;
54865;SDS011;40754;52.094;4.328;2023-03-01T06:53:17;48.25;;;26.00;;
54865;SDS011;40754;52.094;4.328;2023-03-01T06:55:43;47.45;;;26.60;;
54865;SDS011;40754;52.094;4.328;2023-03-01T06:58:12;57.85;;;26.50;;
54865;SDS011;40754;52.094;4.328;2023-03-01T07:00:38;46.60;;;25.52;;
54865;SDS011;40754;52.094;4.328;2023-03-01T07:03:05;45.10;;;25.73;;
54865;SDS011;40754;52.094;4.328;2023-03-01T07:05:40;45.65;;;26.88;;
54865;SDS011;40754;52.094;4.328;2023-03-01T07:08:11;47.35;;;25.77;;
54865;SDS011;40754;52.094;4.328;2023-03-01T07:10:37;42.58;;;25.20;;
54865;SDS011;40754;52.094;4.328;2023-03-01T07:13:03;44.38;;;24.73;;
54865;SDS011;40754;52.094;4.328;2023-03-01T07:15:28;49.55;;;26.77;;
54865;SDS011;40754;52.094;4.328;2023-03-01T07:17:57;45.88;;;25.08;;
54865;SDS011;40754;52.094;4.328;2023-03-01T07:20:23;43.30;;;25.08;;
54865;SDS011;40754;52.094;4.328;2023-03-01T07:22:54;42.65;;;24.92;;
54865;SDS011;40754;52.094;4.328;2023-03-01T07:25:26;43.20;;;23.77;;
54865;SDS011;40754;52.094;4.328;2023-03-01T07:27:52;46.25;;;24.48;;
54865;SDS011;40754;52.094;4.328;2023-03-01T07:30:19;38.55;;;24.23;;
54865;SDS011;40754;52.094;4.328;2023-03-01T07:32:48;44.97;;;22.98;;
54865;SDS011;40754;52.094;4.328;2023-03-01T07:35:13;39.83;;;24.13;;
54865;SDS011;40754;52.094;4.328;2023-03-01T07:37:40;39.72;;;23.05;;
54865;SDS011;40754;52.094;4.328;2023-03-01T07:40:09;40.65;;;22.83;;
54865;SDS011;40754;52.094;4.328;2023-03-01T07:42:35;37.05;;;23.10;;
54865;SDS011;40754;52.094;4.328;2023-03-01T07:45:03;38.50;;;22.98;;
54865;SDS011;40754;52.094;4.328;2023-03-01T07:47:30;36.10;;;21.33;;
54865;SDS011;40754;52.094;4.328;2023-03-01T07:49:56;39.10;;;21.13;;
54865;SDS011;40754;52.094;4.328;2023-03-01T07:52:29;30.60;;;19.20;;
54865;SDS011;40754;52.094;4.328;2023-03-01T07:54:55;34.78;;;20.63;;
54865;SDS011;40754;52.094;4.328;2023-03-01T07:57:24;37.95;;;21.02;;
54865;SDS011;40754;52.094;4.328;2023-03-01T07:59:49;35.17;;;21.25;;
54865;SDS011;40754;52.094;4.328;2023-03-01T08:02:15;30.67;;;19.42;;
54865;SDS011;40754;52.094;4.328;2023-03-01T08:04:44;33.28;;;19.83;;
54865;SDS011;40754;52.094;4.328;2023-03-01T08:07:10;31.25;;;20.02;;
54865;SDS011;40754;52.094;4.328;2023-03-01T08:09:35;31.23;;;20.17;;
54865;SDS011;40754;52.094;4.328;2023-03-01T08:12:04;34.08;;;19.65;;
54865;SDS011;40754;52.094;4.328;2023-03-01T08:14:33;32.83;;;19.13;;
54865;SDS011;40754;52.094;4.328;2023-03-01T08:17:01;34.78;;;20.50;;
54865;SDS011;40754;52.094;4.328;2023-03-01T08:19:29;27.55;;;18.08;;
54865;SDS011;40754;52.094;4.328;2023-03-01T08:21:55;32.03;;;19.55;;
54865;SDS011;40754;52.094;4.328;2023-03-01T08:24:23;30.88;;;19.60;;
54865;SDS011;40754;52.094;4.328;2023-03-01T08:26:48;32.65;;;20.02;;
54865;SDS011;40754;52.094;4.328;2023-03-01T08:29:14;38.10;;;21.60;;
54865;SDS011;40754;52.094;4.328;2023-03-01T08:31:43;33.30;;;21.20;;
54865;SDS011;40754;52.094;4.328;2023-03-01T08:34:11;35.92;;;21.17;;
54865;SDS011;40754;52.094;4.328;2023-03-01T08:36:39;37.70;;;22.25;;
54865;SDS011;40754;52.094;4.328;2023-03-01T08:39:10;40.30;;;22.67;;
54865;SDS011;40754;52.094;4.328;2023-03-01T08:41:37;33.22;;;21.83;;
54865;SDS011;40754;52.094;4.328;2023-03-01T08:44:03;36.65;;;22.35;;
54865;SDS011;40754;52.094;4.328;2023-03-01T08:46:30;33.70;;;22.08;;
54865;SDS011;40754;52.094;4.328;2023-03-01T08:48:58;34.75;;;22.23;;
54865;SDS011;40754;52.094;4.328;2023-03-01T08:51:24;34.90;;;22.17;;
54865;SDS011;40754;52.094;4.328;2023-03-01T08:53:55;33.03;;;22.83;;
54865;SDS011;40754;52.094;4.328;2023-03-01T08:56:20;39.35;;;22.98;;
54865;SDS011;40754;52.094;4.328;2023-03-01T08:58:46;36.78;;;22.75;;
54865;SDS011;40754;52.094;4.328;2023-03-01T09:01:14;36.05;;;22.80;;
54865;SDS011;40754;52.094;4.328;2023-03-01T09:03:41;37.95;;;23.70;;
54865;SDS011;40754;52.094;4.328;2023-03-01T09:06:07;36.78;;;22.25;;
54865;SDS011;40754;52.094;4.328;2023-03-01T09:08:34;37.55;;;22.35;;
54865;SDS011;40754;52.094;4.328;2023-03-01T09:11:04;33.03;;;21.65;;
54865;SDS011;40754;52.094;4.328;2023-03-01T09:13:31;38.47;;;22.05;;
54865;SDS011;40754;52.094;4.328;2023-03-01T09:16:05;35.65;;;23.45;;
54865;SDS011;40754;52.094;4.328;2023-03-01T09:18:35;34.67;;;22.48;;
54865;SDS011;40754;52.094;4.328;2023-03-01T09:21:05;41.35;;;24.08;;
54865;SDS011;40754;52.094;4.328;2023-03-01T09:23:35;38.92;;;21.73;;
54865;SDS011;40754;52.094;4.328;2023-03-01T09:28:36;34.03;;;21.23;;
54865;SDS011;40754;52.094;4.328;2023-03-01T09:31:06;35.40;;;21.50;;
54865;SDS011;40754;52.094;4.328;2023-03-01T09:33:32;31.13;;;21.52;;
54865;SDS011;40754;52.094;4.328;2023-03-01T09:35:59;35.20;;;21.25;;
54865;SDS011;40754;52.094;4.328;2023-03-01T09:38:29;30.88;;;20.80;;
54865;SDS011;40754;52.094;4.328;2023-03-01T09:40:55;37.65;;;22.35;;
54865;SDS011;40754;52.094;4.328;2023-03-01T09:46:37;34.75;;;21.10;;
54865;SDS011;40754;52.094;4.328;2023-03-01T09:49:10;34.60;;;21.75;;
54865;SDS011;40754;52.094;4.328;2023-03-01T09:51:41;45.42;;;22.15;;
54865;SDS011;40754;52.094;4.328;2023-03-01T09:54:08;33.15;;;20.38;;
54865;SDS011;40754;52.094;4.328;2023-03-01T09:56:40;31.40;;;20.20;;
54865;SDS011;40754;52.094;4.328;2023-03-01T10:10:44;29.27;;;17.20;;
54865;SDS011;40754;52.094;4.328;2023-03-01T10:13:55;37.08;;;15.32;;
54865;SDS011;40754;52.094;4.328;2023-03-01T10:16:15;27.50;;;17.27;;
54865;SDS011;40754;52.094;4.328;2023-03-01T10:18:42;32.15;;;13.70;;
54865;SDS011;40754;52.094;4.328;2023-03-01T10:21:16;33.20;;;14.38;;
54865;SDS011;40754;52.094;4.328;2023-03-01T10:23:43;26.75;;;11.73;;
54865;SDS011;40754;52.094;4.328;2023-03-01T10:29:08;27.25;;;12.20;;
54865;SDS011;40754;52.094;4.328;2023-03-01T10:31:39;25.50;;;11.32;;
54865;SDS011;40754;52.094;4.328;2023-03-01T10:34:25;27.45;;;11.52;;
54865;SDS011;40754;52.094;4.328;2023-03-01T10:39:24;28.10;;;11.15;;
54865;SDS011;40754;52.094;4.328;2023-03-01T10:41:55;22.30;;;10.63;;
54865;SDS011;40754;52.094;4.328;2023-03-01T10:47:24;17.75;;;9.93;;
54865;SDS011;40754;52.094;4.328;2023-03-01T10:49:53;23.20;;;10.30;;
54865;SDS011;40754;52.094;4.328;2023-03-01T10:57:39;15.18;;;8.90;;
54865;SDS011;40754;52.094;4.328;2023-03-01T11:00:22;14.27;;;7.80;;
54865;SDS011;40754;52.094;4.328;2023-03-01T11:03:13;17.20;;;8.38;;
54865;SDS011;40754;52.094;4.328;2023-03-01T11:05:50;12.82;;;8.07;;
54865;SDS011;40754;52.094;4.328;2023-03-01T11:11:33;13.13;;;8.10;;
54865;SDS011;40754;52.094;4.328;2023-03-01T11:13:54;17.63;;;8.15;;
54865;SDS011;40754;52.094;4.328;2023-03-01T11:16:25;21.38;;;8.27;;
54865;SDS011;40754;52.094;4.328;2023-03-01T11:18:56;16.20;;;8.38;;
54865;SDS011;40754;52.094;4.328;2023-03-01T11:21:34;11.25;;;7.85;;
54865;SDS011;40754;52.094;4.328;2023-03-01T11:24:10;12.20;;;8.60;;
54865;SDS011;40754;52.094;4.328;2023-03-01T11:26:38;17.48;;;8.48;;
54865;SDS011;40754;52.094;4.328;2023-03-01T11:29:16;14.63;;;8.40;;
54865;SDS011;40754;52.094;4.328;2023-03-01T11:31:54;16.60;;;8.55;;
54865;SDS011;40754;52.094;4.328;2023-03-01T11:37:26;18.48;;;9.15;;
54865;SDS011;40754;52.094;4.328;2023-03-01T11:45:26;15.00;;;8.85;;
54865;SDS011;40754;52.094;4.328;2023-03-01T11:51:24;12.23;;;9.27;;
54865;SDS011;40754;52.094;4.328;2023-03-01T11:56:55;11.38;;;8.98;;
54865;SDS011;40754;52.094;4.328;2023-03-01T12:10:30;15.15;;;9.65;;
54865;SDS011;40754;52.094;4.328;2023-03-01T12:16:21;13.70;;;9.25;;
54865;SDS011;40754;52.094;4.328;2023-03-01T12:45:12;10.52;;;7.32;;
54865;SDS011;40754;52.094;4.328;2023-03-01T12:50:44;9.70;;;7.15;;
54865;SDS011;40754;52.094;4.328;2023-03-01T12:53:21;15.27;;;7.95;;
54865;SDS011;40754;52.094;4.328;2023-03-01T12:55:49;12.45;;;8.43;;
54865;SDS011;40754;52.094;4.328;2023-03-01T13:17:52;19.67;;;11.60;;
54865;SDS011;40754;52.094;4.328;2023-03-01T13:31:06;16.30;;;11.80;;
54865;SDS011;40754;52.094;4.328;2023-03-01T13:33:43;18.42;;;11.50;;
54865;SDS011;40754;52.094;4.328;2023-03-01T13:41:14;19.02;;;11.23;;
54865;SDS011;40754;52.094;4.328;2023-03-01T13:43:42;14.02;;;11.25;;
54865;SDS011;40754;52.094;4.328;2023-03-01T13:46:16;17.45;;;11.60;;
54865;SDS011;40754;52.094;4.328;2023-03-01T13:48:44;17.08;;;11.63;;
54865;SDS011;40754;52.094;4.328;2023-03-01T13:51:11;17.55;;;10.98;;
54865;SDS011;40754;52.094;4.328;2023-03-01T13:53:41;18.00;;;11.10;;
54865;SDS011;40754;52.094;4.328;2023-03-01T13:56:10;14.38;;;11.20;;
54865;SDS011;40754;52.094;4.328;2023-03-01T14:01:44;16.02;;;10.43;;
54865;SDS011;40754;52.094;4.328;2023-03-01T14:04:31;16.55;;;9.75;;
54865;SDS011;40754;52.094;4.328;2023-03-01T14:07:10;14.25;;;9.25;;
54865;SDS011;40754;52.094;4.328;2023-03-01T14:09:44;16.33;;;9.85;;
54865;SDS011;40754;52.094;4.328;2023-03-01T14:12:14;10.13;;;8.63;;
54865;SDS011;40754;52.094;4.328;2023-03-01T14:14:52;17.08;;;9.25;;
54865;SDS011;40754;52.094;4.328;2023-03-01T14:22:43;14.23;;;9.18;;
54865;SDS011;40754;52.094;4.328;2023-03-01T14:25:20;13.80;;;9.60;;
54865;SDS011;40754;52.094;4.328;2023-03-01T14:28:04;15.02;;;9.55;;
54865;SDS011;40754;52.094;4.328;2023-03-01T14:30:37;13.98;;;9.35;;
54865;SDS011;40754;52.094;4.328;2023-03-01T14:33:06;15.77;;;9.02;;
54865;SDS011;40754;52.094;4.328;2023-03-01T14:35:54;11.95;;;8.65;;
54865;SDS011;40754;52.094;4.328;2023-03-01T14:38:22;14.13;;;8.60;;
54865;SDS011;40754;52.094;4.328;2023-03-01T14:40:52;22.80;;;10.38;;
54865;SDS011;40754;52.094;4.328;2023-03-01T14:43:22;16.77;;;8.43;;
54865;SDS011;40754;52.094;4.328;2023-03-01T14:45:48;11.90;;;8.88;;
54865;SDS011;40754;52.094;4.328;2023-03-01T14:48:15;16.15;;;8.35;;
54865;SDS011;40754;52.094;4.328;2023-03-01T14:50:41;11.35;;;8.00;;
54865;SDS011;40754;52.094;4.328;2023-03-01T14:53:17;13.65;;;8.95;;
54865;SDS011;40754;52.094;4.328;2023-03-01T14:55:54;16.55;;;9.13;;
54865;SDS011;40754;52.094;4.328;2023-03-01T14:58:24;12.52;;;8.82;;
54865;SDS011;40754;52.094;4.328;2023-03-01T15:06:10;15.63;;;7.78;;
54865;SDS011;40754;52.094;4.328;2023-03-01T15:08:41;13.38;;;8.02;;
54865;SDS011;40754;52.094;4.328;2023-03-01T15:11:22;13.00;;;8.32;;
54865;SDS011;40754;52.094;4.328;2023-03-01T15:13:58;15.00;;;8.02;;
54865;SDS011;40754;52.094;4.328;2023-03-01T15:16:27;10.73;;;6.97;;
54865;SDS011;40754;52.094;4.328;2023-03-01T15:21:57;14.55;;;7.47;;
54865;SDS011;40754;52.094;4.328;2023-03-01T15:24:49;11.45;;;7.80;;
54865;SDS011;40754;52.094;4.328;2023-03-01T15:27:20;10.73;;;7.55;;
54865;SDS011;40754;52.094;4.328;2023-03-01T15:30:00;10.32;;;7.13;;
54865;SDS011;40754;52.094;4.328;2023-03-01T15:35:32;12.35;;;7.38;;
54865;SDS011;40754;52.094;4.328;2023-03-01T15:41:37;8.88;;;7.28;;
54865;SDS011;40754;52.094;4.328;2023-03-01T15:44:14;11.60;;;7.88;;
54865;SDS011;40754;52.094;4.328;2023-03-01T15:46:59;13.80;;;7.72;;
54865;SDS011;40754;52.094;4.328;2023-03-01T15:49:33;12.07;;;7.97;;
54865;SDS011;40754;52.094;4.328;2023-03-01T15:52:05;15.35;;;8.85;;
54865;SDS011;40754;52.094;4.328;2023-03-01T15:54:44;10.32;;;7.60;;
54865;SDS011;40754;52.094;4.328;2023-03-01T15:57:17;12.75;;;7.65;;
54865;SDS011;40754;52.094;4.328;2023-03-01T15:59:42;14.18;;;8.02;;
54865;SDS011;40754;52.094;4.328;2023-03-01T16:02:09;13.68;;;6.95;;
54865;SDS011;40754;52.094;4.328;2023-03-01T16:04:38;13.70;;;6.72;;
54865;SDS011;40754;52.094;4.328;2023-03-01T16:07:15;10.45;;;6.55;;
54865;SDS011;40754;52.094;4.328;2023-03-01T16:09:53;16.95;;;7.70;;
54865;SDS011;40754;52.094;4.328;2023-03-01T16:12:18;13.70;;;7.85;;
54865;SDS011;40754;52.094;4.328;2023-03-01T16:14:46;15.43;;;7.50;;
54865;SDS011;40754;52.094;4.328;2023-03-01T16:17:13;12.55;;;7.15;;
54865;SDS011;40754;52.094;4.328;2023-03-01T16:19:45;9.95;;;6.70;;
54865;SDS011;40754;52.094;4.328;2023-03-01T16:22:10;10.15;;;6.88;;
54865;SDS011;40754;52.094;4.328;2023-03-01T16:24:39;10.90;;;7.30;;
54865;SDS011;40754;52.094;4.328;2023-03-01T16:27:09;14.45;;;8.25;;
54865;SDS011;40754;52.094;4.328;2023-03-01T16:29:35;10.02;;;7.45;;
54865;SDS011;40754;52.094;4.328;2023-03-01T16:32:01;12.60;;;8.15;;
54865;SDS011;40754;52.094;4.328;2023-03-01T16:34:27;10.80;;;8.05;;
54865;SDS011;40754;52.094;4.328;2023-03-01T16:36:52;16.30;;;7.53;;
54865;SDS011;40754;52.094;4.328;2023-03-01T16:39:18;13.85;;;7.38;;
54865;SDS011;40754;52.094;4.328;2023-03-01T16:41:43;12.90;;;7.80;;
54865;SDS011;40754;52.094;4.328;2023-03-01T16:44:09;11.82;;;7.60;;
54865;SDS011;40754;52.094;4.328;2023-03-01T16:46:38;14.73;;;7.60;;
54865;SDS011;40754;52.094;4.328;2023-03-01T16:49:06;14.30;;;8.15;;
54865;SDS011;40754;52.094;4.328;2023-03-01T16:51:35;14.65;;;8.30;;
54865;SDS011;40754;52.094;4.328;2023-03-01T16:54:01;14.88;;;8.63;;
54865;SDS011;40754;52.094;4.328;2023-03-01T16:56:29;15.00;;;8.63;;
54865;SDS011;40754;52.094;4.328;2023-03-01T16:58:57;13.60;;;8.55;;
54865;SDS011;40754;52.094;4.328;2023-03-01T17:01:23;15.30;;;7.65;;
54865;SDS011;40754;52.094;4.328;2023-03-01T17:03:53;13.27;;;8.23;;
54865;SDS011;40754;52.094;4.328;2023-03-01T17:06:19;13.82;;;7.80;;
54865;SDS011;40754;52.094;4.328;2023-03-01T17:08:47;13.35;;;7.90;;
54865;SDS011;40754;52.094;4.328;2023-03-01T17:11:13;18.77;;;8.60;;
54865;SDS011;40754;52.094;4.328;2023-03-01T17:13:41;12.77;;;7.40;;
54865;SDS011;40754;52.094;4.328;2023-03-01T17:16:07;20.45;;;8.95;;
54865;SDS011;40754;52.094;4.328;2023-03-01T17:18:34;17.38;;;8.45;;
54865;SDS011;40754;52.094;4.328;2023-03-01T17:21:00;13.40;;;9.07;;
54865;SDS011;40754;52.094;4.328;2023-03-01T17:23:27;11.52;;;7.10;;